Terminal Aerodrome Forecast
Issued by NWS

Home | Current Version | Previous Version | Text Only | Print | Product List | Glossary On
Versions: 1 2 3 4 5 6 7 8 9 10 11 12
000
FTUS43 KMPX 251732
TAFRWF
TAF
KRWF 251732Z 2518/2618 31015G24KT P6SM FEW050
     FM260100 31005KT P6SM BKN080
     FM260700 31004KT P6SM SKC
     FM261500 35007KT P6SM SKC=

USA.gov is the U.S. government's official web portal to all federal, state and local government web resources and services.